Terminal Aerodrome Forecast
Issued by NWS

Home | Current Version | Previous Version | Graphics & Text | Print | Product List | Glossary On
Versions: 1 2 3 4 5 6 7 8 9 10 11 12 13 14 15 16 17 18 19 20
000
FTUS43 KTOP 261100
TAFFOE
TAF
KFOE 261121Z 2612/2712 27011KT P6SM SCT080
     FM261600 31020G30KT P6SM BKN040
     FM262000 32016G25KT P6SM SCT040
     FM270100 35007KT P6SM SKC=

USA.gov is the U.S. government's official web portal to all federal, state and local government web resources and services.